Lewis Run, Pennsylvania
Current Conditions -  °F | °C
As of 12:53 PM on Thursday 30 Oct 2014 (Local Time) from KBFD Reporting Station
Light Rain Light Rain  
Wind Chill: 36°   Ceiling: 2000
Heat Index: 41°   Visibility: 5mi
Dew Point: 36°   Wind: 8mph
Humidity: 82%   Direction: 310°NW
Pressure: 30.05"   Gusts: NA
Location:  41.87°N, 78.66°W
Report Text: KBFD 301653Z AUTO 31007KT 5SM -RA FEW013 BKN020 OVC024 05/02 A3005 RMK AO2 RAB03 SLP188 P0001 T00500022
Loading
Personal Weather Stations






























Interactive Weather Map
Tropical Storm Tracking
New forecast layout! Learn more

10-Day Weather Forecast

Advertisements
Track Severe Weather on mobile